Terminal Aerodrome Forecast
Issued by NWS

Home | Current Version | Previous Version | Text Only | Print | Product List | Glossary On
Versions: 1 2 3 4 5 6 7 8 9 10 11 12 13 14 15 16 17 18 19 20 21 22 23 24 25 26 27 28 29 30 31 32 33 34 35 36 37 38 39 40 41 42 43 44
000
FTUS41 KOKX 200529
TAFTEB
TAF
KTEB 200529Z 2006/2112 16005KT P6SM SCT015 SCT050 BKN250
     FM200800 14003KT P6SM VCSH BKN010
     FM201000 15004KT P6SM VCSH SCT005 OVC010
     FM201600 20006KT 5SM -DZ BR SCT009 OVC015
     FM202100 VRB04KT 4SM -DZ BR SCT010 BKN020
     FM210000 VRB02KT 5SM BR OVC015
     FM210200 VRB02KT 3SM BR OVC010=

USA.gov is the U.S. government's official web portal to all federal, state and local government web resources and services.